createdAt,value
2019-04-22T00:00:53.572Z,86.41
2019-04-22T00:03:23.706Z,86.01
2019-04-22T00:06:14.702Z,86.04
2019-04-22T00:08:43.289Z,87.07
2019-04-22T00:11:23.907Z,88.07
2019-04-22T00:16:19.138Z,88.99
2019-04-22T00:19:01.374Z,89.10
2019-04-22T00:21:20.089Z,89.30
2019-04-22T00:23:51.533Z,89.58
2019-04-22T00:26:24.502Z,89.58
2019-04-22T00:28:49.984Z,88.34
2019-04-22T00:31:40.563Z,87.31
2019-04-22T00:34:12.987Z,87.57
2019-04-22T00:36:41.917Z,88.42
2019-04-22T00:39:17.098Z,89.32
2019-04-22T00:41:47.272Z,90.39
2019-04-22T00:44:23.704Z,91.44
2019-04-22T00:46:46.155Z,91.57
2019-04-22T00:51:55.559Z,90.84
2019-04-22T00:54:17.052Z,91.05
2019-04-22T00:56:48.233Z,91.36
2019-04-22T00:59:22.091Z,91.25
2019-04-22T01:01:43.030Z,91.06
2019-04-22T01:04:27.782Z,91.21
2019-04-22T01:06:55.625Z,91.40
2019-04-22T01:09:17.437Z,91.46
2019-04-22T01:12:04.189Z,91.93
2019-04-22T01:14:21.943Z,91.86
2019-04-22T01:16:57.742Z,90.97
2019-04-22T01:19:27.630Z,90.43
2019-04-22T01:21:52.433Z,90.30
2019-04-22T01:24:24.687Z,90.83
2019-04-22T01:26:49.507Z,90.99
2019-04-22T01:29:14.921Z,91.30
2019-04-22T01:31:38.827Z,91.73
2019-04-22T01:34:23.314Z,92.08
2019-04-22T01:36:57.716Z,91.70
2019-04-22T01:39:39.055Z,91.43
2019-04-22T01:42:07.319Z,91.33
2019-04-22T01:52:04.755Z,92.31
2019-04-22T01:54:41.582Z,92.54
2019-04-22T01:57:04.956Z,92.78
2019-04-22T01:59:32.946Z,92.82
2019-04-22T02:02:09.232Z,92.72
2019-04-22T02:04:47.967Z,92.74
2019-04-22T02:07:16.533Z,92.83
2019-04-22T02:09:42.695Z,92.90
2019-04-22T02:12:14.415Z,93.08
2019-04-22T02:14:44.386Z,93.43
2019-04-22T02:17:17.668Z,93.91
2019-04-22T02:19:45.652Z,93.59
2019-04-22T02:22:24.951Z,93.64
2019-04-22T02:24:47.043Z,94.06
2019-04-22T02:27:17.718Z,94.54
2019-04-22T02:29:48.757Z,94.65
2019-04-22T02:34:58.657Z,94.79
2019-04-22T02:39:55.420Z,94.58
2019-04-22T02:42:21.532Z,94.77
2019-04-22T02:49:59.775Z,94.59
2019-04-22T02:52:47.290Z,94.51
2019-04-22T02:57:35.561Z,95.25
2019-04-22T03:02:46.130Z,95.58
2019-04-22T03:05:06.807Z,95.61
2019-04-22T03:07:23.490Z,95.97
2019-04-22T03:09:59.442Z,95.92
2019-04-22T03:14:54.302Z,95.27
2019-04-22T03:22:42.586Z,95.67
2019-04-22T03:25:34.791Z,95.72
2019-04-22T03:27:30.061Z,95.71
2019-04-22T03:40:30.444Z,92.81
2019-04-22T03:42:56.053Z,93.67
2019-04-22T03:50:20.714Z,93.98
2019-04-22T03:52:44.436Z,94.16
2019-04-22T03:55:15.748Z,91.26
2019-04-22T03:57:50.180Z,90.91
2019-04-22T04:00:26.670Z,91.69
2019-04-22T04:05:33.888Z,94.14
2019-04-22T04:10:30.108Z,95.40
2019-04-22T04:17:52.023Z,96.61
2019-04-22T04:32:59.090Z,96.58
2019-04-22T04:35:50.181Z,95.99
2019-04-22T04:37:54.879Z,95.82
2019-04-22T04:42:58.486Z,95.81
2019-04-22T04:50:38.603Z,95.60
2019-04-22T04:53:19.067Z,92.78
2019-04-22T04:55:46.865Z,89.57
2019-04-22T04:58:13.806Z,85.97
2019-04-22T05:00:55.318Z,82.64
2019-04-22T05:05:39.795Z,81.71
2019-04-22T05:08:00.737Z,79.58
2019-04-22T05:10:49.756Z,77.43
2019-04-22T05:13:23.427Z,75.07
2019-04-22T05:16:10.569Z,73.66
2019-04-22T05:18:13.393Z,72.23
2019-04-22T05:20:50.618Z,70.70
2019-04-22T05:23:13.173Z,70.58
2019-04-22T05:25:31.686Z,67.84
2019-04-22T05:28:10.466Z,65.79
2019-04-22T05:33:12.560Z,66.23
2019-04-22T05:35:37.918Z,64.82
2019-04-22T05:40:34.368Z,63.91
2019-04-22T05:43:13.896Z,64.17
2019-04-22T05:45:43.306Z,63.59
2019-04-22T05:48:14.985Z,64.40
2019-04-22T05:50:45.150Z,64.32
2019-04-22T05:53:13.215Z,61.38
2019-04-22T05:55:51.817Z,61.24
2019-04-22T05:58:18.843Z,62.91
2019-04-22T06:01:23.528Z,60.86
2019-04-22T06:03:22.160Z,63.63
2019-04-22T06:05:47.263Z,63.93
2019-04-22T06:08:23.235Z,64.91
2019-04-22T06:11:06.099Z,64.21
2019-04-22T06:13:26.758Z,62.60
2019-04-22T06:15:58.731Z,61.74
2019-04-22T06:18:29.949Z,62.18
2019-04-22T06:21:07.498Z,63.71
2019-04-22T06:23:36.039Z,65.01
2019-04-22T06:26:14.717Z,63.95
2019-04-22T06:31:02.491Z,63.44
2019-04-22T06:33:34.670Z,66.78
2019-04-22T06:36:03.624Z,65.19
2019-04-22T06:41:08.792Z,63.63
2019-04-22T06:43:35.563Z,62.52
2019-04-22T06:46:10.099Z,62.07
2019-04-22T06:48:34.668Z,60.69
2019-04-22T06:51:06.449Z,60.79
2019-04-22T06:53:40.500Z,60.14
2019-04-22T06:56:05.094Z,59.82
2019-04-22T06:58:39.723Z,58.47
2019-04-22T07:01:09.521Z,57.73
2019-04-22T07:06:13.037Z,51.97
2019-04-22T07:09:06.044Z,53.24
2019-04-22T07:11:05.774Z,55.60
2019-04-22T07:13:43.702Z,52.16
2019-04-22T07:16:15.333Z,51.44
2019-04-22T07:18:43.111Z,54.08
2019-04-22T07:21:12.677Z,52.88
2019-04-22T07:23:51.341Z,53.79
2019-04-22T07:26:27.464Z,53.96
2019-04-22T07:28:44.854Z,51.95
2019-04-22T07:31:16.019Z,50.57
2019-04-22T07:33:48.869Z,52.21
2019-04-22T07:38:42.541Z,53.22
2019-04-22T07:41:12.470Z,50.38
2019-04-22T07:44:07.375Z,50.24
2019-04-22T07:46:22.970Z,51.65
2019-04-22T07:48:51.833Z,50.87
2019-04-22T07:51:23.587Z,49.69
2019-04-22T07:53:48.538Z,52.22
2019-04-22T07:56:18.442Z,52.86
2019-04-22T07:58:49.305Z,53.81
2019-04-22T08:01:20.488Z,52.20
2019-04-22T08:04:00.137Z,51.36
2019-04-22T08:06:24.634Z,51.89
2019-04-22T08:09:00.476Z,51.14
2019-04-22T08:11:37.544Z,50.79
2019-04-22T08:13:55.253Z,52.75
2019-04-22T08:16:26.353Z,50.45
2019-04-22T08:19:15.566Z,51.45
2019-04-22T08:21:22.192Z,51.34
2019-04-22T08:23:59.373Z,48.51
2019-04-22T08:26:27.527Z,50.09
2019-04-22T08:28:57.992Z,48.59
2019-04-22T08:31:51.915Z,49.57
2019-04-22T08:34:01.972Z,49.56
2019-04-22T08:36:31.730Z,52.54
2019-04-22T08:39:10.948Z,51.23
2019-04-22T08:46:37.815Z,46.88
2019-04-22T08:49:16.043Z,47.13
2019-04-22T08:51:49.548Z,46.86
2019-04-22T08:54:06.446Z,47.32
2019-04-22T08:56:37.695Z,46.72
2019-04-22T08:59:15.005Z,46.17
2019-04-22T09:01:34.376Z,47.83
2019-04-22T09:04:16.244Z,46.89
2019-04-22T09:07:07.710Z,46.96
2019-04-22T09:14:34.506Z,44.55
2019-04-22T09:16:44.755Z,47.57
2019-04-22T09:19:12.639Z,46.86
2019-04-22T09:21:50.675Z,44.50
2019-04-22T09:24:30.358Z,45.15
2019-04-22T09:29:20.769Z,45.50
2019-04-22T09:31:47.559Z,44.30
2019-04-22T09:34:13.801Z,43.95
2019-04-22T09:36:50.257Z,42.49
2019-04-22T09:39:19.443Z,41.35
2019-04-22T09:44:15.292Z,40.99
2019-04-22T09:46:47.254Z,39.08
2019-04-22T09:49:26.621Z,40.87
2019-04-22T09:51:54.022Z,40.40
2019-04-22T09:54:26.555Z,40.85
2019-04-22T09:56:49.443Z,41.88
2019-04-22T09:59:20.697Z,42.09
2019-04-22T10:02:08.159Z,41.33
2019-04-22T10:04:18.819Z,43.30
2019-04-22T10:06:45.539Z,42.39
2019-04-22T10:09:51.772Z,43.00
2019-04-22T10:11:50.954Z,44.41
2019-04-22T10:14:29.068Z,41.93
2019-04-22T10:16:53.941Z,42.33
2019-04-22T10:19:23.148Z,40.80
2019-04-22T10:24:26.433Z,38.65
2019-04-22T10:26:56.349Z,38.66
2019-04-22T10:29:26.026Z,39.29
2019-04-22T10:34:16.709Z,38.55
2019-04-22T10:36:35.491Z,39.91
2019-04-22T10:39:06.455Z,38.89
2019-04-22T10:41:36.651Z,37.85
2019-04-22T10:44:05.572Z,36.22
2019-04-22T10:46:37.940Z,36.48
2019-04-22T10:49:08.282Z,37.06
2019-04-22T10:51:37.112Z,37.71
2019-04-22T10:54:07.275Z,37.43
2019-04-22T10:56:36.951Z,39.54
2019-04-22T10:59:06.836Z,36.56
2019-04-22T11:01:38.194Z,39.20
2019-04-22T11:04:06.972Z,39.22
2019-04-22T11:06:42.567Z,37.74
2019-04-22T11:09:09.014Z,38.35
2019-04-22T11:11:49.136Z,39.17
2019-04-22T11:14:10.807Z,36.68
2019-04-22T11:16:43.491Z,37.37
2019-04-22T11:19:14.014Z,38.33
2019-04-22T11:21:44.578Z,39.50
2019-04-22T11:24:14.763Z,39.24
2019-04-22T11:26:47.030Z,39.31
2019-04-22T11:29:17.302Z,35.75
2019-04-22T11:31:46.507Z,37.01
2019-04-22T11:34:17.175Z,37.19
2019-04-22T11:36:47.147Z,36.37
2019-04-22T11:39:17.039Z,37.95
2019-04-22T11:41:47.178Z,37.87
2019-04-22T11:44:17.175Z,37.28
2019-04-22T11:46:49.535Z,38.33
2019-04-22T11:49:19.409Z,37.38
2019-04-22T11:51:48.142Z,36.96
2019-04-22T11:54:17.078Z,35.43
2019-04-22T11:56:47.337Z,36.45
2019-04-22T11:59:16.244Z,36.66
2019-04-22T12:01:45.071Z,37.43
2019-04-22T12:04:16.038Z,39.11
2019-04-22T12:06:46.140Z,40.21
2019-04-22T12:09:17.589Z,37.98
2019-04-22T12:11:46.918Z,38.84
2019-04-22T12:14:15.933Z,37.22
2019-04-22T12:16:45.519Z,39.80
2019-04-22T12:19:16.470Z,38.65
2019-04-22T12:21:46.749Z,35.05
2019-04-22T12:24:16.960Z,37.70
2019-04-22T12:26:46.408Z,38.04
2019-04-22T12:29:15.473Z,37.92
2019-04-22T12:31:47.193Z,36.27
2019-04-22T12:34:19.444Z,35.52
2019-04-22T12:36:48.747Z,35.89
2019-04-22T12:39:19.176Z,36.59
2019-04-22T12:41:49.953Z,37.13
2019-04-22T12:44:20.118Z,35.78
2019-04-22T12:46:50.266Z,35.70
2019-04-22T12:49:20.381Z,34.69
2019-04-22T12:51:49.350Z,35.18
2019-04-22T12:54:21.190Z,36.02
2019-04-22T12:56:51.424Z,35.27
2019-04-22T12:59:21.458Z,35.41
2019-04-22T13:01:51.186Z,37.13
2019-04-22T13:04:22.940Z,38.05
2019-04-22T13:06:53.603Z,36.96
2019-04-22T13:09:23.641Z,37.72
2019-04-22T13:11:53.021Z,37.15
2019-04-22T13:14:23.289Z,36.57
2019-04-22T13:16:53.552Z,35.12
2019-04-22T13:19:25.059Z,36.91
2019-04-22T13:21:54.582Z,37.17
2019-04-22T13:24:23.754Z,36.99
2019-04-22T13:26:53.065Z,37.41
2019-04-22T13:29:22.956Z,36.24
2019-04-22T13:31:54.966Z,36.47
2019-04-22T13:34:34.826Z,36.18
2019-04-22T13:36:58.973Z,36.64
2019-04-22T13:39:29.195Z,38.88
2019-04-22T13:42:03.557Z,38.79
2019-04-22T13:44:29.752Z,38.33
2019-04-22T13:47:14.750Z,39.15
2019-04-22T13:50:05.689Z,36.39
2019-04-22T13:52:45.143Z,37.07
2019-04-22T13:57:19.981Z,37.05
2019-04-22T13:59:41.113Z,36.76
2019-04-22T14:02:16.901Z,34.81
2019-04-22T14:05:20.112Z,36.79
2019-04-22T14:07:53.199Z,34.31
2019-04-22T14:10:20.717Z,32.52
2019-04-22T14:12:50.925Z,34.01
2019-04-22T14:15:22.410Z,34.37
2019-04-22T14:17:52.801Z,35.00
2019-04-22T14:20:25.126Z,33.27
2019-04-22T14:22:52.768Z,33.85
2019-04-22T14:25:36.644Z,32.41
2019-04-22T14:28:10.258Z,31.73
2019-04-22T14:30:39.090Z,31.93
2019-04-22T14:33:07.959Z,34.17
2019-04-22T14:35:38.162Z,34.32
2019-04-22T14:38:08.395Z,36.03
2019-04-22T14:40:38.636Z,35.65
2019-04-22T14:43:29.010Z,34.74
2019-04-22T14:46:15.782Z,36.80
2019-04-22T14:48:41.929Z,36.49
2019-04-22T14:51:05.804Z,37.43
2019-04-22T14:53:30.827Z,36.47
2019-04-22T14:55:44.347Z,36.77
2019-04-22T14:58:13.280Z,35.26
2019-04-22T15:00:42.425Z,35.46
2019-04-22T15:03:11.234Z,36.57
2019-04-22T15:05:42.013Z,36.87
2019-04-22T15:08:13.220Z,36.92
2019-04-22T15:10:42.392Z,35.99
2019-04-22T15:13:15.591Z,36.40
2019-04-22T15:15:49.000Z,37.12
2019-04-22T15:18:28.385Z,37.56
2019-04-22T15:20:58.729Z,39.70
2019-04-22T15:23:28.661Z,40.94
2019-04-22T15:25:58.941Z,40.56
2019-04-22T15:28:29.254Z,39.53
2019-04-22T15:30:59.500Z,39.25
2019-04-22T15:33:29.553Z,39.54
2019-04-22T15:35:59.006Z,39.94
2019-04-22T15:38:28.317Z,39.38
2019-04-22T15:40:58.564Z,39.03
2019-04-22T15:43:30.899Z,38.68
2019-04-22T15:46:02.315Z,39.30
2019-04-22T15:48:32.275Z,40.75
2019-04-22T15:51:00.563Z,40.87
2019-04-22T15:53:29.647Z,41.27
2019-04-22T15:55:58.861Z,42.39
2019-04-22T15:58:30.144Z,43.65
2019-04-22T16:01:10.343Z,44.68
2019-04-22T16:03:29.489Z,45.41
2019-04-22T16:05:59.699Z,46.24
2019-04-22T16:08:30.838Z,47.14
2019-04-22T16:11:00.004Z,47.92
2019-04-22T16:13:32.407Z,47.86
2019-04-22T16:16:00.647Z,47.69
2019-04-22T16:18:30.694Z,47.99
2019-04-22T16:21:00.158Z,48.47
2019-04-22T16:23:31.990Z,48.38
2019-04-22T16:26:20.244Z,48.81
2019-04-22T16:28:49.373Z,49.21
2019-04-22T16:31:19.596Z,49.44
2019-04-22T16:33:48.377Z,49.73
2019-04-22T16:36:18.528Z,50.68
2019-04-22T16:38:48.985Z,51.89
2019-04-22T16:41:19.024Z,52.53
2019-04-22T16:43:48.840Z,52.90
2019-04-22T16:46:19.306Z,52.80
2019-04-22T16:48:49.627Z,52.87
2019-04-22T16:51:18.454Z,53.53
2019-04-22T16:53:47.482Z,53.09
2019-04-22T16:56:17.209Z,52.89
2019-04-22T16:58:46.523Z,53.49
2019-04-22T17:01:34.787Z,53.92
2019-04-22T17:04:05.140Z,54.91
2019-04-22T17:06:35.507Z,56.15
2019-04-22T17:09:06.769Z,55.56
2019-04-22T17:11:35.972Z,55.04
2019-04-22T17:14:05.564Z,54.59
2019-04-22T17:16:34.636Z,54.92
2019-04-22T17:19:04.487Z,55.12
2019-04-22T17:21:35.235Z,55.16
2019-04-22T17:24:05.608Z,55.37
2019-04-22T17:26:34.646Z,55.17
2019-04-22T17:29:06.324Z,54.69
2019-04-22T17:31:34.750Z,55.38
2019-04-22T17:34:04.709Z,54.24
2019-04-22T17:36:34.107Z,55.22
2019-04-22T17:39:18.347Z,54.73
2019-04-22T17:41:55.353Z,54.72
2019-04-22T17:44:46.534Z,55.14
2019-04-22T17:47:22.008Z,54.72
2019-04-22T17:50:00.152Z,54.26
2019-04-22T17:52:45.558Z,54.75
2019-04-22T17:54:51.678Z,54.64
2019-04-22T17:57:27.866Z,54.73
2019-04-22T17:59:55.378Z,55.84
2019-04-22T18:02:25.232Z,55.89
2019-04-22T18:04:50.797Z,54.92
2019-04-22T18:12:39.726Z,54.53
2019-04-22T18:15:04.310Z,53.89
2019-04-22T18:17:35.569Z,54.22
2019-04-22T18:19:58.337Z,54.40
2019-04-22T18:22:27.387Z,55.24
2019-04-22T18:24:56.766Z,55.01
2019-04-22T18:27:57.359Z,54.71
2019-04-22T18:30:02.358Z,54.83
2019-04-22T18:32:30.826Z,54.55
2019-04-22T18:35:00.059Z,54.09
2019-04-22T18:37:40.977Z,53.98
2019-04-22T18:40:12.011Z,54.08
2019-04-22T18:42:31.358Z,54.34
2019-04-22T18:45:28.313Z,54.60
2019-04-22T18:47:41.741Z,54.98
2019-04-22T18:50:10.651Z,54.22
2019-04-22T18:52:49.343Z,54.17
2019-04-22T18:55:17.963Z,54.41
2019-04-22T18:57:59.143Z,54.46
2019-04-22T19:00:21.564Z,54.75
2019-04-22T19:02:59.284Z,53.67
2019-04-22T19:05:42.689Z,53.46
2019-04-22T19:15:54.315Z,53.78
2019-04-22T19:18:27.021Z,53.39
2019-04-22T19:20:57.726Z,53.66
2019-04-22T19:23:23.958Z,54.07
2019-04-22T19:25:48.598Z,53.31
2019-04-22T19:28:29.268Z,53.92
2019-04-22T19:30:56.760Z,53.70
2019-04-22T19:33:23.895Z,54.20
2019-04-22T19:35:51.303Z,54.08
2019-04-22T19:38:14.356Z,53.98
2019-04-22T19:41:10.896Z,54.39
2019-04-22T19:43:30.972Z,54.52
2019-04-22T19:45:55.417Z,54.23
2019-04-22T19:48:42.613Z,54.63
2019-04-22T19:51:06.966Z,54.54
2019-04-22T19:53:35.310Z,54.95
2019-04-22T19:55:55.545Z,55.50
2019-04-22T19:58:25.906Z,55.29
2019-04-22T20:00:56.329Z,55.29
2019-04-22T20:03:56.280Z,54.79
2019-04-22T20:06:27.109Z,54.75
2019-04-22T20:09:02.867Z,55.29
2019-04-22T20:11:29.009Z,54.74
2019-04-22T20:14:03.257Z,55.50
2019-04-22T20:16:27.315Z,55.29
2019-04-22T20:19:06.947Z,55.23
2019-04-22T20:21:35.481Z,55.11
2019-04-22T20:23:54.883Z,55.38
2019-04-22T20:26:31.708Z,55.23
2019-04-22T20:29:04.628Z,54.92
2019-04-22T20:31:39.240Z,55.00
2019-04-22T20:34:09.113Z,55.02
2019-04-22T20:39:04.960Z,55.11
2019-04-22T20:41:34.279Z,55.06
2019-04-22T20:44:11.262Z,55.12
2019-04-22T20:46:35.806Z,55.52
2019-04-22T20:49:11.706Z,55.15
2019-04-22T20:51:48.688Z,55.15
2019-04-22T20:54:12.289Z,55.27
2019-04-22T20:56:37.285Z,56.53
2019-04-22T20:59:14.961Z,57.11
2019-04-22T21:01:47.681Z,57.33
2019-04-22T21:03:59.125Z,56.85
2019-04-22T21:06:42.871Z,57.06
2019-04-22T21:09:18.031Z,57.13
2019-04-22T21:11:40.612Z,58.50
2019-04-22T21:14:17.768Z,57.74
2019-04-22T21:16:52.984Z,56.92
2019-04-22T21:19:28.100Z,56.53
2019-04-22T21:21:59.703Z,57.68
2019-04-22T21:24:23.648Z,57.77
2019-04-22T21:26:49.925Z,57.81
2019-04-22T21:29:24.715Z,58.46
2019-04-22T21:31:54.866Z,58.69
2019-04-22T21:34:24.794Z,57.60
2019-04-22T21:37:06.216Z,58.70
2019-04-22T21:39:29.062Z,58.40
2019-04-22T21:41:58.873Z,58.58
2019-04-22T21:44:32.347Z,58.19
2019-04-22T21:47:10.866Z,58.14
2019-04-22T21:49:35.872Z,59.03
2019-04-22T21:52:07.968Z,58.49
2019-04-22T21:54:42.544Z,59.14
2019-04-22T21:59:35.782Z,58.52
2019-04-22T22:02:12.380Z,57.87
2019-04-22T22:04:36.552Z,57.75
2019-04-22T22:06:55.379Z,57.89
2019-04-22T22:09:39.884Z,57.41
2019-04-22T22:12:07.908Z,57.59
2019-04-22T22:14:40.063Z,59.12
2019-04-22T22:17:09.007Z,58.62
2019-04-22T22:19:43.534Z,58.34
2019-04-22T22:22:30.194Z,58.67
2019-04-22T22:24:47.630Z,58.79
2019-04-22T22:27:14.622Z,58.76
2019-04-22T22:32:22.012Z,58.17
2019-04-22T22:34:45.878Z,59.01
2019-04-22T22:37:07.597Z,59.54
2019-04-22T22:39:41.752Z,59.07
2019-04-22T22:41:57.666Z,58.53
2019-04-22T22:44:33.500Z,59.13
2019-04-22T22:47:16.722Z,59.83
2019-04-22T22:49:50.331Z,58.63
2019-04-22T22:54:53.692Z,59.05
2019-04-22T22:57:28.927Z,58.91
2019-04-22T22:59:51.286Z,57.93
2019-04-22T23:02:22.930Z,57.39
2019-04-22T23:04:54.449Z,58.25
2019-04-22T23:07:30.117Z,58.38
2019-04-22T23:09:53.659Z,57.93
2019-04-22T23:12:34.971Z,57.10
2019-04-22T23:14:56.115Z,57.71
2019-04-22T23:17:11.873Z,58.54
2019-04-22T23:19:41.937Z,57.49
2019-04-22T23:22:17.897Z,57.89
2019-04-22T23:24:58.521Z,57.46
2019-04-22T23:27:32.396Z,56.10
2019-04-22T23:30:04.175Z,55.19
2019-04-22T23:32:35.876Z,56.25
2019-04-22T23:35:14.699Z,57.04
2019-04-22T23:37:47.403Z,56.07
2019-04-22T23:40:27.072Z,56.37
2019-04-22T23:42:52.915Z,57.28
2019-04-22T23:45:21.093Z,56.78
2019-04-22T23:47:41.220Z,57.66
2019-04-22T23:50:24.344Z,56.92
2019-04-22T23:52:52.971Z,56.37
2019-04-22T23:55:23.111Z,56.61
2019-04-22T23:57:56.918Z,57.02
